createdAt,value
2018-09-15T00:46:46.630Z,19.82
2018-09-15T00:49:14.275Z,19.76
2018-09-15T00:51:42.438Z,19.98
2018-09-15T00:54:14.052Z,19.92
2018-09-15T00:59:16.305Z,20.25
2018-09-15T01:01:44.018Z,19.91
2018-09-15T01:04:11.914Z,19.92
2018-09-15T01:06:39.447Z,20.04
2018-09-15T01:09:09.387Z,20.08
2018-09-15T01:11:38.402Z,19.99
2018-09-15T01:14:07.781Z,20.07
2018-09-15T01:16:36.618Z,20.10
2018-09-15T01:19:05.765Z,19.84
2018-09-15T01:21:35.284Z,19.75
2018-09-15T01:24:03.781Z,19.66
2018-09-15T01:26:34.958Z,19.70
2018-09-15T01:29:05.995Z,19.61
2018-09-15T01:31:36.214Z,19.39
2018-09-15T01:34:05.687Z,19.23
2018-09-15T01:36:36.430Z,19.33
2018-09-15T01:39:08.565Z,19.51
2018-09-15T01:41:36.098Z,19.54
2018-09-15T01:44:03.801Z,19.63
2018-09-15T01:46:34.719Z,19.75
2018-09-15T01:49:04.452Z,19.40
2018-09-15T01:51:33.286Z,19.10
2018-09-15T01:54:02.913Z,19.15
2018-09-15T01:56:31.513Z,19.03
2018-09-15T01:59:00.320Z,19.11
2018-09-15T02:01:27.542Z,19.09
2018-09-15T02:11:30.973Z,19.49
2018-09-15T02:13:59.540Z,19.74
2018-09-15T02:16:30.123Z,19.56
2018-09-15T02:19:00.011Z,19.65
2018-09-15T02:21:26.980Z,19.41
2018-09-15T02:23:56.544Z,19.28
2018-09-15T02:31:29.908Z,19.19
2018-09-15T02:33:58.269Z,19.04
2018-09-15T02:38:57.923Z,19.07
2018-09-15T02:44:01.659Z,19.38
2018-09-15T02:46:29.851Z,19.16
2018-09-15T02:48:58.334Z,19.19
2018-09-15T02:54:02.554Z,19.15
2018-09-15T02:56:33.010Z,19.10
2018-09-15T02:59:01.269Z,19.14
2018-09-15T03:01:29.505Z,18.88
2018-09-15T03:06:28.899Z,19.10
2018-09-15T03:08:57.660Z,19.28
2018-09-15T03:11:31.145Z,19.26
2018-09-15T03:13:57.831Z,19.59
2018-09-15T03:16:28.223Z,19.74
2018-09-15T03:18:55.505Z,19.30
2018-09-15T03:21:22.435Z,19.23
2018-09-15T03:23:52.274Z,19.18
2018-09-15T03:26:21.946Z,19.23
2018-09-15T03:28:48.712Z,19.23
2018-09-15T03:31:15.756Z,19.04
2018-09-15T03:36:15.421Z,19.34
2018-09-15T03:38:44.408Z,19.08
2018-09-15T03:41:12.870Z,19.01
2018-09-15T03:43:42.097Z,18.81
2018-09-15T03:46:10.455Z,18.80
2018-09-15T03:48:38.650Z,18.74
2018-09-15T03:51:06.827Z,18.76
2018-09-15T03:53:36.793Z,18.73
2018-09-15T03:56:04.414Z,18.87
2018-09-15T03:58:32.220Z,19.04
2018-09-15T04:01:00.596Z,19.21
2018-09-15T04:03:28.945Z,19.51
2018-09-15T04:05:56.383Z,19.44
2018-09-15T04:08:29.067Z,19.53
2018-09-15T04:10:56.740Z,19.42
2018-09-15T04:13:27.110Z,19.57
2018-09-15T04:15:55.225Z,19.62
2018-09-15T04:18:24.956Z,19.63
2018-09-15T04:20:53.810Z,19.51
2018-09-15T04:23:21.959Z,19.42
2018-09-15T04:25:50.515Z,19.32
2018-09-15T04:28:18.406Z,19.34
2018-09-15T04:30:46.660Z,19.30
2018-09-15T04:33:13.381Z,19.03
2018-09-15T04:35:40.743Z,18.74
2018-09-15T04:38:08.452Z,18.90
2018-09-15T04:40:41.169Z,19.34
2018-09-15T04:43:08.957Z,19.03
2018-09-15T04:45:38.236Z,18.87
2018-09-15T04:48:05.563Z,18.81
2018-09-15T04:50:33.329Z,18.97
2018-09-15T04:53:01.782Z,18.92
2018-09-15T04:58:04.529Z,19.12
2018-09-15T05:00:31.950Z,19.00
2018-09-15T05:03:00.922Z,19.10
2018-09-15T05:05:28.427Z,19.25
2018-09-15T05:07:57.745Z,19.28
2018-09-15T05:10:27.588Z,19.25
2018-09-15T05:12:56.569Z,19.68
2018-09-15T05:15:25.515Z,19.54
2018-09-15T05:17:59.030Z,19.32
2018-09-15T05:20:26.931Z,19.30
2018-09-15T05:22:55.118Z,19.12
2018-09-15T05:25:23.405Z,19.15
2018-09-15T05:27:52.555Z,19.27
2018-09-15T05:30:19.904Z,19.09
2018-09-15T05:32:48.008Z,19.02
2018-09-15T05:35:15.614Z,19.60
2018-09-15T05:37:43.394Z,19.76
2018-09-15T05:40:12.061Z,19.99
2018-09-15T05:42:42.490Z,20.08
2018-09-15T05:45:10.546Z,20.06
2018-09-15T05:47:37.546Z,19.96
2018-09-15T05:50:06.615Z,20.12
2018-09-15T05:52:35.759Z,20.02
2018-09-15T05:55:05.675Z,20.06
2018-09-15T05:57:37.428Z,20.19
2018-09-15T06:00:05.409Z,20.03
2018-09-15T06:02:35.448Z,20.18
2018-09-15T06:10:16.332Z,20.99
2018-09-15T06:12:48.202Z,20.99
2018-09-15T06:15:17.749Z,21.17
2018-09-15T06:20:25.322Z,21.41
2018-09-15T06:28:05.705Z,21.58
2018-09-15T06:30:34.808Z,21.80
2018-09-15T06:33:04.081Z,21.92
2018-09-15T06:35:31.751Z,22.17
2018-09-15T06:38:00.088Z,22.26
2018-09-15T06:40:29.801Z,22.46
2018-09-15T06:43:02.166Z,22.41
2018-09-15T06:45:31.043Z,22.32
2018-09-15T06:48:01.404Z,22.25
2018-09-15T06:50:30.673Z,22.18
2018-09-15T06:53:03.200Z,22.46
2018-09-15T06:55:33.474Z,22.53
2018-09-15T06:58:03.206Z,22.77
2018-09-15T07:00:30.558Z,22.77
2018-09-15T07:02:59.437Z,22.53
2018-09-15T07:05:31.742Z,22.61
2018-09-15T07:08:01.059Z,23.03
2018-09-15T07:10:29.652Z,22.98
2018-09-15T07:13:00.295Z,22.99
2018-09-15T07:18:00.167Z,23.07
2018-09-15T07:20:33.056Z,23.23
2018-09-15T07:23:06.658Z,23.03
2018-09-15T07:25:38.001Z,22.83
2018-09-15T07:30:41.262Z,23.15
2018-09-15T07:33:11.258Z,23.19
2018-09-15T07:35:39.373Z,23.43
2018-09-15T07:38:08.252Z,23.73
2018-09-15T07:43:09.517Z,23.49
2018-09-15T07:45:37.703Z,23.60
2018-09-15T07:48:06.785Z,23.84
2018-09-15T07:50:36.053Z,23.68
2018-09-15T07:53:07.287Z,24.04
2018-09-15T07:55:35.041Z,23.96
2018-09-15T07:58:05.343Z,24.24
2018-09-15T08:00:35.060Z,24.57
2018-09-15T08:03:03.240Z,24.79
2018-09-15T08:05:31.208Z,24.83
2018-09-15T08:07:58.697Z,24.76
2018-09-15T08:13:03.927Z,24.79
2018-09-15T08:15:34.121Z,24.73
2018-09-15T08:18:02.609Z,25.04
2018-09-15T08:20:33.068Z,25.17
2018-09-15T08:23:00.927Z,25.07
2018-09-15T08:25:29.677Z,25.12
2018-09-15T08:30:29.779Z,25.41
2018-09-15T08:32:58.296Z,25.50
2018-09-15T08:35:28.070Z,25.44
2018-09-15T08:37:54.660Z,25.63
2018-09-15T08:40:23.917Z,25.75
2018-09-15T08:42:57.797Z,25.53
2018-09-15T08:48:00.934Z,25.44
2018-09-15T08:50:32.994Z,25.71
2018-09-15T08:53:00.660Z,26.05
2018-09-15T08:55:31.535Z,26.32
2018-09-15T08:58:02.412Z,26.26
2018-09-15T09:00:31.295Z,26.32
2018-09-15T09:03:01.775Z,26.33
2018-09-15T09:05:34.914Z,26.61
2018-09-15T09:08:03.034Z,26.68
2018-09-15T09:10:31.800Z,26.66
2018-09-15T09:13:04.151Z,27.01
2018-09-15T09:20:50.697Z,27.21
2018-09-15T09:23:23.514Z,27.37
2018-09-15T09:25:55.635Z,27.41
2018-09-15T09:28:23.681Z,27.81
2018-09-15T09:33:31.117Z,28.19
2018-09-15T09:35:59.238Z,28.35
2018-09-15T09:38:27.891Z,28.08
2018-09-15T09:40:56.533Z,28.43
2018-09-15T09:46:04.484Z,28.41
2018-09-15T09:48:32.976Z,28.41
2018-09-15T09:51:06.517Z,28.70
2018-09-15T09:56:08.642Z,28.78
2018-09-15T09:58:35.700Z,29.20
2018-09-15T10:01:04.523Z,29.39
2018-09-15T10:11:32.867Z,29.53
2018-09-15T10:14:04.861Z,29.44
2018-09-15T10:19:08.258Z,29.15
2018-09-15T10:21:38.107Z,29.68
2018-09-15T10:26:46.981Z,29.85
2018-09-15T10:29:15.057Z,29.87
2018-09-15T10:31:42.857Z,30.21
2018-09-15T10:36:50.393Z,30.04
2018-09-15T10:41:49.817Z,29.60
2018-09-15T10:44:18.647Z,29.49
2018-09-15T10:46:47.646Z,29.16
2018-09-15T10:49:15.385Z,29.48
2018-09-15T10:51:48.784Z,29.55
2018-09-15T10:56:51.632Z,29.75
2018-09-15T10:59:20.532Z,29.74
2018-09-15T11:01:48.056Z,29.81
2018-09-15T11:04:16.487Z,29.25
2018-09-15T11:06:47.406Z,28.97
2018-09-15T11:11:52.473Z,28.59
2018-09-15T11:14:20.065Z,28.26
2018-09-15T11:16:47.926Z,28.89
2018-09-15T11:19:15.788Z,28.79
2018-09-15T11:21:43.371Z,28.62
2018-09-15T11:24:11.962Z,28.47
2018-09-15T11:26:41.897Z,28.73
2018-09-15T11:29:09.797Z,29.08
2018-09-15T11:31:38.386Z,29.29
2018-09-15T11:34:09.942Z,29.33
2018-09-15T11:36:38.111Z,29.18
2018-09-15T11:39:06.430Z,29.15
2018-09-15T11:41:34.552Z,29.37
2018-09-15T11:44:01.931Z,29.31
2018-09-15T11:46:34.249Z,29.42
2018-09-15T11:49:03.396Z,29.48
2018-09-15T11:51:30.899Z,29.65
2018-09-15T11:54:00.231Z,29.38
2018-09-15T11:56:31.120Z,29.86
2018-09-15T11:59:03.862Z,30.11
2018-09-15T12:01:35.165Z,30.12
2018-09-15T12:04:08.320Z,29.85
2018-09-15T12:11:48.032Z,30.31
2018-09-15T12:14:17.510Z,30.30
2018-09-15T12:16:45.275Z,30.22
2018-09-15T12:19:12.436Z,30.04
2018-09-15T12:21:40.714Z,29.74
2018-09-15T12:24:08.757Z,29.75
2018-09-15T12:26:38.702Z,29.47
2018-09-15T12:29:11.073Z,29.60
2018-09-15T12:31:40.610Z,29.53
2018-09-15T12:36:50.679Z,29.91
2018-09-15T12:41:58.483Z,30.17
2018-09-15T12:44:27.606Z,30.35
2018-09-15T12:49:28.858Z,30.68
2018-09-15T12:54:34.369Z,30.59
2018-09-15T12:59:36.350Z,30.68
2018-09-15T13:02:08.312Z,30.58
2018-09-15T13:04:35.123Z,30.51
2018-09-15T13:09:42.698Z,30.43
2018-09-15T13:12:11.786Z,30.40
2018-09-15T13:17:17.052Z,31.14
2018-09-15T13:19:50.872Z,30.67
2018-09-15T13:27:26.376Z,31.44
2018-09-15T13:29:54.414Z,31.84
2018-09-15T13:39:56.531Z,32.04
2018-09-15T13:42:27.430Z,31.96
2018-09-15T13:44:59.699Z,32.06
2018-09-15T13:52:30.594Z,32.00
2018-09-15T14:00:11.531Z,32.13
2018-09-15T14:02:43.254Z,32.01
2018-09-15T14:10:30.831Z,32.64
2018-09-15T14:18:04.151Z,32.06
2018-09-15T14:20:33.781Z,32.22
2018-09-15T14:23:01.882Z,32.18
2018-09-15T14:25:31.173Z,32.17
2018-09-15T14:30:57.282Z,32.14
2018-09-15T14:36:01.968Z,32.19
2018-09-15T14:38:29.546Z,32.31
2018-09-15T14:43:29.179Z,31.83
2018-09-15T14:51:20.702Z,31.63
2018-09-15T14:53:50.924Z,31.71
2018-09-15T14:56:21.826Z,31.65
2018-09-15T14:58:49.857Z,31.65
2018-09-15T15:04:11.429Z,31.46
2018-09-15T15:06:47.415Z,31.46
2018-09-15T15:19:37.833Z,31.56
2018-09-15T15:30:09.806Z,30.78
2018-09-15T15:32:38.808Z,30.64
2018-09-15T15:38:02.625Z,30.83
2018-09-15T15:40:32.741Z,31.03
2018-09-15T15:45:42.234Z,30.85
2018-09-15T15:50:43.798Z,30.99
2018-09-15T15:53:12.957Z,31.00
2018-09-15T16:00:47.120Z,30.64
2018-09-15T16:03:14.528Z,30.60
2018-09-15T16:05:43.098Z,30.42
2018-09-15T16:08:13.684Z,30.37
2018-09-15T16:13:25.337Z,30.04
2018-09-15T16:16:05.623Z,29.90
2018-09-15T16:18:34.902Z,29.43
2018-09-15T16:21:01.993Z,29.20
2018-09-15T16:23:30.947Z,28.95
2018-09-15T16:25:58.056Z,28.65
2018-09-15T16:28:25.271Z,28.45
2018-09-15T16:30:52.521Z,28.16
2018-09-15T16:33:20.276Z,28.07
2018-09-15T16:41:03.999Z,27.59
2018-09-15T16:43:35.847Z,27.54
2018-09-15T16:53:48.945Z,26.63
2018-09-15T16:56:17.871Z,26.55
2018-09-15T16:58:47.413Z,26.53
2018-09-15T17:01:14.394Z,26.49
2018-09-15T17:06:17.614Z,26.40
2018-09-15T17:08:45.054Z,26.21
2018-09-15T17:11:12.515Z,25.97
2018-09-15T17:16:17.497Z,25.63
2018-09-15T17:18:48.599Z,25.53
2018-09-15T17:23:47.382Z,25.43
2018-09-15T17:26:16.975Z,25.29
2018-09-15T17:28:47.608Z,25.04
2018-09-15T17:31:15.429Z,24.83
2018-09-15T17:33:43.052Z,24.96
2018-09-15T17:36:10.343Z,24.90
2018-09-15T17:38:39.178Z,24.70
2018-09-15T17:43:41.746Z,24.49
2018-09-15T17:46:11.933Z,24.44
2018-09-15T17:48:39.072Z,24.45
2018-09-15T17:51:07.285Z,24.28
2018-09-15T17:53:35.761Z,24.21
2018-09-15T17:56:05.990Z,23.97
2018-09-15T17:58:33.999Z,23.92
2018-09-15T18:01:03.632Z,23.87
2018-09-15T18:03:32.008Z,23.87
2018-09-15T18:05:59.617Z,23.80
2018-09-15T18:08:28.517Z,23.75
2018-09-15T18:13:29.604Z,23.82
2018-09-15T18:15:58.292Z,23.76
2018-09-15T18:18:26.621Z,23.64
2018-09-15T18:20:55.327Z,23.62
2018-09-15T18:23:26.478Z,23.90
2018-09-15T18:25:57.234Z,23.59
2018-09-15T18:28:28.862Z,23.46
2018-09-15T18:30:59.002Z,23.44
2018-09-15T18:33:27.252Z,23.34
2018-09-15T18:35:55.431Z,23.28
2018-09-15T18:38:23.860Z,23.16
2018-09-15T18:40:53.773Z,22.86
2018-09-15T18:43:26.449Z,22.71
2018-09-15T18:45:55.801Z,22.69
2018-09-15T18:50:57.678Z,22.90
2018-09-15T18:53:28.495Z,23.21
2018-09-15T18:55:57.276Z,23.15
2018-09-15T18:58:26.948Z,23.18
2018-09-15T19:00:55.901Z,23.12
2018-09-15T19:03:27.882Z,23.02
2018-09-15T19:05:56.364Z,22.79
2018-09-15T19:08:26.034Z,22.86
2018-09-15T19:10:53.394Z,22.71
2018-09-15T19:13:21.296Z,22.75
2018-09-15T19:18:24.820Z,22.57
2018-09-15T19:20:56.295Z,22.51
2018-09-15T19:25:58.751Z,22.54
2018-09-15T19:28:28.853Z,22.51
2018-09-15T19:30:57.519Z,22.41
2018-09-15T19:33:25.544Z,22.68
2018-09-15T19:38:27.383Z,22.56
2018-09-15T19:40:57.867Z,22.40
2018-09-15T19:43:28.080Z,22.29
2018-09-15T19:45:59.508Z,22.30
2018-09-15T19:48:26.499Z,22.04
2018-09-15T19:50:56.682Z,22.06
2018-09-15T19:53:26.667Z,22.02
2018-09-15T19:55:55.453Z,22.23
2018-09-15T19:58:22.918Z,22.08
2018-09-15T20:00:55.958Z,22.14
2018-09-15T20:03:23.486Z,22.19
2018-09-15T20:05:50.126Z,22.15
2018-09-15T20:10:51.355Z,22.18
2018-09-15T20:13:19.208Z,22.28
2018-09-15T20:15:47.454Z,22.35
2018-09-15T20:18:15.540Z,22.26
2018-09-15T20:20:43.656Z,22.30
2018-09-15T20:23:13.008Z,22.38
2018-09-15T20:25:46.090Z,22.45
2018-09-15T20:28:14.961Z,22.52
2018-09-15T20:33:14.557Z,22.33
2018-09-15T20:35:44.731Z,22.22
2018-09-15T20:38:14.972Z,22.28
2018-09-15T20:43:18.303Z,22.44
2018-09-15T20:45:47.983Z,22.55
2018-09-15T20:48:17.904Z,22.42
2018-09-15T20:50:44.682Z,22.44
2018-09-15T20:53:14.266Z,22.55
2018-09-15T20:55:43.325Z,22.44
2018-09-15T20:58:12.761Z,22.21
2018-09-15T21:00:43.605Z,22.24
2018-09-15T21:03:10.343Z,22.37
2018-09-15T21:05:38.973Z,22.53
2018-09-15T21:08:09.751Z,22.41
2018-09-15T21:10:37.951Z,22.32
2018-09-15T21:13:06.926Z,22.28
2018-09-15T21:20:42.371Z,22.70
2018-09-15T21:23:11.513Z,22.67
2018-09-15T21:25:38.552Z,22.44
2018-09-15T21:28:07.217Z,22.22
2018-09-15T21:30:36.642Z,22.26
2018-09-15T21:33:04.363Z,22.37
2018-09-15T21:35:32.729Z,22.66
2018-09-15T21:40:32.438Z,22.47
2018-09-15T21:43:01.303Z,22.46
2018-09-15T21:45:29.490Z,22.47
2018-09-15T21:47:59.590Z,22.58
2018-09-15T21:50:27.088Z,22.70
2018-09-15T21:52:56.138Z,22.79
2018-09-15T21:55:26.381Z,22.80
2018-09-15T21:57:59.485Z,22.86
2018-09-15T22:00:27.336Z,22.82
2018-09-15T22:02:56.885Z,22.82
2018-09-15T22:05:25.720Z,22.78
2018-09-15T22:07:54.755Z,22.68
2018-09-15T22:10:25.476Z,23.03
2018-09-15T22:12:55.738Z,22.96
2018-09-15T22:15:24.164Z,22.87
2018-09-15T22:17:51.784Z,23.05
2018-09-15T22:22:51.033Z,22.55
2018-09-15T22:27:48.880Z,22.74
2018-09-15T22:32:51.945Z,22.54
2018-09-15T22:35:21.593Z,22.56
2018-09-15T22:37:50.439Z,22.88
2018-09-15T22:40:20.560Z,22.97
2018-09-15T22:42:49.756Z,22.90
2018-09-15T22:45:19.835Z,22.82
2018-09-15T22:47:48.524Z,22.77
2018-09-15T22:50:22.782Z,22.78
2018-09-15T22:52:51.512Z,22.99
2018-09-15T22:55:21.566Z,23.16
2018-09-15T22:57:49.835Z,22.85
2018-09-15T23:00:20.136Z,22.68
2018-09-15T23:02:52.897Z,22.77
2018-09-15T23:05:21.098Z,22.61
2018-09-15T23:07:49.531Z,22.45
2018-09-15T23:12:49.172Z,22.52
2018-09-15T23:15:18.073Z,22.34
2018-09-15T23:17:47.152Z,22.44
2018-09-15T23:20:15.925Z,22.52
2018-09-15T23:22:44.582Z,22.47
2018-09-15T23:25:11.245Z,22.62
2018-09-15T23:27:43.071Z,22.50
2018-09-15T23:30:11.508Z,22.32
2018-09-15T23:32:40.053Z,22.21
2018-09-15T23:35:08.130Z,22.09
2018-09-15T23:37:36.308Z,22.16
2018-09-15T23:40:04.914Z,22.19
2018-09-15T23:42:32.332Z,22.05
2018-09-15T23:45:01.087Z,22.10
2018-09-15T23:47:29.340Z,22.25
2018-09-15T23:49:58.470Z,22.26
2018-09-15T23:52:26.967Z,22.22
2018-09-15T23:54:56.218Z,22.15
2018-09-15T23:57:25.884Z,22.18
2018-09-15T23:59:55.612Z,22.32
